Time;durP1;ratioP1;P1;durP2;ratioP2;P2;SDS_P1;SDS_P2;PMS_P1;PMS_P2;Temp;Humidity;BMP_temperature;BMP_pressure;BME280_temperature;BME280_humidity;BME280_pressure;Samples;Min_cycle;Max_cycle;Signal;HPM_P1;HPM_P2
2024/01/01 00:01:00;;;;;;;44.90;35.47;;;4.60;28.10;;;;;;5017959;28;20879;-70
2024/01/01 00:03:26;;;;;;;48.47;33.90;;;4.70;28.10;;;;;;5018523;28;20497;-69
2024/01/01 00:05:51;;;;;;;49.93;33.90;;;4.70;27.60;;;;;;5018001;28;20199;-69
2024/01/01 00:08:17;;;;;;;46.20;29.53;;;4.80;27.30;;;;;;5018338;28;20184;-69
2024/01/01 00:10:44;;;;;;;32.47;23.53;;;4.90;26.70;;;;;;5018149;28;20219;-69
2024/01/01 00:13:09;;;;;;;26.80;21.70;;;4.90;26.40;;;;;;5015357;28;20249;-68
2024/01/01 00:15:35;;;;;;;29.10;19.70;;;4.90;26.50;;;;;;5015664;28;20429;-69
2024/01/01 00:18:00;;;;;;;21.47;16.00;;;5.00;26.40;;;;;;5015676;28;20180;-69
2024/01/01 00:20:26;;;;;;;23.30;15.17;;;5.00;26.30;;;;;;5015264;28;20195;-69
2024/01/01 00:22:51;;;;;;;15.90;10.87;;;5.00;26.10;;;;;;5015204;28;20172;-69
2024/01/01 00:25:17;;;;;;;12.70;8.20;;;5.00;26.60;;;;;;5014977;28;20172;-70
2024/01/01 00:27:43;;;;;;;11.20;8.50;;;5.10;26.10;;;;;;5014803;28;20254;-69
2024/01/01 00:30:09;;;;;;;11.20;7.60;;;5.10;25.90;;;;;;5014555;28;20431;-69
2024/01/01 00:32:34;;;;;;;11.43;6.20;;;5.10;25.90;;;;;;5014628;28;20184;-70
2024/01/01 00:35:00;;;;;;;8.03;5.67;;;5.20;25.30;;;;;;5013652;28;20473;-70
2024/01/01 00:37:25;;;;;;;9.90;6.27;;;5.20;25.10;;;;;;5014714;28;20611;-70
2024/01/01 00:39:51;;;;;;;13.83;7.07;;;5.20;24.90;;;;;;5014771;28;20191;-70
2024/01/01 00:42:17;;;;;;;11.57;6.80;;;5.30;24.90;;;;;;5014268;28;20203;-69
2024/01/01 00:44:44;;;;;;;12.47;7.00;;;5.20;24.60;;;;;;5014708;28;20214;-68
2024/01/01 00:47:10;;;;;;;9.37;6.47;;;5.20;24.40;;;;;;5014298;28;20171;-70
2024/01/01 00:49:35;;;;;;;11.27;6.07;;;5.20;25.40;;;;;;5014367;28;20525;-69
2024/01/01 00:52:01;;;;;;;13.63;7.57;;;5.20;25.00;;;;;;5014243;28;20175;-69
2024/01/01 00:54:28;;;;;;;9.07;6.30;;;5.10;24.90;;;;;;5014359;28;20566;-71
2024/01/01 00:56:54;;;;;;;8.43;5.67;;;5.10;25.40;;;;;;5014090;28;20654;-69
2024/01/01 00:59:21;;;;;;;9.80;7.43;;;5.00;25.60;;;;;;5014139;28;20535;-69
2024/01/01 01:01:46;;;;;;;9.73;6.90;;;5.00;25.80;;;;;;5014039;28;20426;-68
2024/01/01 01:04:12;;;;;;;11.40;7.50;;;4.90;26.10;;;;;;5014194;28;20968;-70
2024/01/01 01:06:37;;;;;;;12.37;7.00;;;4.80;26.50;;;;;;5014082;28;20673;-70
2024/01/01 01:11:28;;;;;;;8.93;7.17;;;4.80;27.20;;;;;;5034878;23;20342;-70
2024/01/01 01:13:56;;;;;;;10.23;5.83;;;4.90;27.00;;;;;;5012460;28;20190;-70
2024/01/01 01:16:21;;;;;;;9.33;5.57;;;4.90;27.10;;;;;;5012393;28;20289;-70
2024/01/01 01:18:47;;;;;;;10.00;7.03;;;5.00;26.70;;;;;;5012247;28;20518;-69
2024/01/01 01:21:13;;;;;;;8.07;6.40;;;5.10;26.00;;;;;;5013139;28;20972;-69
2024/01/01 01:23:39;;;;;;;8.17;6.37;;;5.10;25.50;;;;;;5011822;28;20186;-70
2024/01/01 01:26:04;;;;;;;13.07;8.20;;;5.20;25.10;;;;;;5013327;28;20211;-68
2024/01/01 01:28:30;;;;;;;10.90;6.60;;;5.20;25.00;;;;;;5012049;28;20462;-69
2024/01/01 01:30:55;;;;;;;9.83;6.17;;;5.30;24.50;;;;;;5013044;28;20196;-70
2024/01/01 01:33:21;;;;;;;10.60;6.60;;;5.30;24.20;;;;;;5013221;28;20183;-69
2024/01/01 01:35:47;;;;;;;8.37;6.37;;;5.40;24.10;;;;;;5011856;28;20191;-69
2024/01/01 01:38:12;;;;;;;8.20;6.33;;;5.40;24.00;;;;;;5013105;28;20187;-71
2024/01/01 01:40:38;;;;;;;10.13;7.70;;;5.40;24.20;;;;;;5012760;28;20446;-69
2024/01/01 01:43:03;;;;;;;8.13;4.80;;;5.50;23.60;;;;;;5013307;28;20180;-69
2024/01/01 01:45:29;;;;;;;7.30;5.73;;;5.50;23.70;;;;;;5013041;28;20183;-69
2024/01/01 01:47:55;;;;;;;7.80;4.60;;;5.60;22.50;;;;;;5011538;28;20188;-70
2024/01/01 01:50:21;;;;;;;14.10;5.53;;;5.60;22.90;;;;;;5012682;28;20483;-69
2024/01/01 01:52:48;;;;;;;8.73;5.40;;;5.60;22.20;;;;;;5012944;28;20180;-70
2024/01/01 01:55:15;;;;;;;7.40;5.13;;;5.70;22.90;;;;;;5012700;28;20518;-70
2024/01/01 01:57:41;;;;;;;5.17;3.43;;;5.70;24.10;;;;;;5012648;28;20826;-69
2024/01/01 02:00:07;;;;;;;7.37;3.10;;;5.70;24.10;;;;;;5013449;28;20435;-69
2024/01/01 02:02:37;;;;;;;5.63;2.80;;;5.80;24.30;;;;;;5012666;28;20767;-69
2024/01/01 02:05:04;;;;;;;5.00;1.70;;;6.00;23.00;;;;;;5011648;28;20933;-70
2024/01/01 02:07:32;;;;;;;7.23;2.90;;;6.00;23.50;;;;;;5012558;28;20450;-69
2024/01/01 02:09:58;;;;;;;4.97;2.47;;;6.00;23.40;;;;;;5011082;28;20494;-69
2024/01/01 02:12:24;;;;;;;5.20;1.93;;;6.10;23.70;;;;;;5011126;28;20454;-70
2024/01/01 02:14:49;;;;;;;2.27;1.23;;;6.00;23.40;;;;;;5012775;28;20906;-71
2024/01/01 02:17:18;;;;;;;7.80;2.00;;;6.00;24.70;;;;;;5012386;28;20212;-70
2024/01/01 02:19:44;;;;;;;6.63;2.83;;;6.00;24.70;;;;;;5012379;28;20243;-70
2024/01/01 02:22:09;;;;;;;5.00;2.60;;;6.00;24.60;;;;;;5012229;28;20499;-69
2024/01/01 02:24:35;;;;;;;4.73;2.27;;;6.00;25.00;;;;;;5012313;28;20211;-69
2024/01/01 02:27:00;;;;;;;5.33;2.63;;;6.00;24.60;;;;;;5012518;28;20187;-70
2024/01/01 02:29:26;;;;;;;4.07;2.30;;;5.90;24.80;;;;;;5012319;28;20246;-69
2024/01/01 02:31:51;;;;;;;9.50;2.97;;;5.90;24.90;;;;;;5010931;28;20640;-69
2024/01/01 02:34:18;;;;;;;5.20;2.83;;;5.90;25.40;;;;;;5011006;28;20205;-70
2024/01/01 02:36:44;;;;;;;5.73;3.50;;;5.80;25.60;;;;;;5011612;28;20200;-69
2024/01/01 02:39:12;;;;;;;13.60;4.97;;;5.70;25.40;;;;;;5011980;28;20438;-70
2024/01/01 02:41:39;;;;;;;5.77;3.57;;;5.70;25.70;;;;;;5010495;28;20176;-70
2024/01/01 02:44:06;;;;;;;7.60;4.97;;;5.70;25.70;;;;;;5012114;28;20403;-70
2024/01/01 02:46:31;;;;;;;6.90;3.97;;;5.60;25.80;;;;;;5012122;28;20836;-70
2024/01/01 02:48:57;;;;;;;7.20;4.17;;;5.50;26.10;;;;;;5011930;28;20518;-70
2024/01/01 02:51:22;;;;;;;7.27;4.20;;;5.30;26.70;;;;;;5011583;28;20682;-70
2024/01/01 02:53:48;;;;;;;7.83;4.60;;;5.20;28.30;;;;;;5012049;28;20184;-69
2024/01/01 02:56:24;;;;;;;5.07;3.70;;;5.10;28.60;;;;;;5010443;28;20207;-70
2024/01/01 02:58:50;;;;;;;8.57;4.37;;;5.10;29.50;;;;;;5011830;28;20179;-70
2024/01/01 03:01:15;;;;;;;7.07;4.13;;;5.10;29.40;;;;;;5011549;28;20796;-70
2024/01/01 03:03:41;;;;;;;8.70;3.70;;;5.10;29.90;;;;;;5011926;28;20431;-69
2024/01/01 03:06:07;;;;;;;7.80;4.20;;;5.20;30.10;;;;;;5012230;28;20194;-70
2024/01/01 03:08:36;;;;;;;5.57;3.10;;;5.20;29.60;;;;;;5011824;28;20423;-70
2024/01/01 03:11:05;;;;;;;8.40;3.90;;;5.20;28.70;;;;;;5011492;28;20686;-70
2024/01/01 03:13:31;;;;;;;5.63;4.13;;;5.10;29.60;;;;;;5010597;28;20517;-71
2024/01/01 03:15:57;;;;;;;6.17;3.30;;;4.90;29.70;;;;;;5011646;28;20584;-70
2024/01/01 03:18:22;;;;;;;6.53;4.03;;;4.80;30.70;;;;;;5010439;28;20242;-69
2024/01/01 03:20:48;;;;;;;6.33;3.37;;;4.60;31.30;;;;;;5011366;28;20258;-70
2024/01/01 03:23:13;;;;;;;5.17;3.30;;;4.60;32.30;;;;;;5011689;28;20172;-70
2024/01/01 03:25:39;;;;;;;5.47;3.50;;;4.50;32.60;;;;;;5011820;28;20195;-70
2024/01/01 03:28:04;;;;;;;6.40;3.10;;;4.40;33.30;;;;;;5011639;28;20205;-71
2024/01/01 03:30:30;;;;;;;15.10;4.00;;;4.40;33.20;;;;;;5011330;28;20493;-70
2024/01/01 03:32:55;;;;;;;6.63;2.70;;;4.50;33.30;;;;;;5011572;28;20188;-71
2024/01/01 03:35:21;;;;;;;4.17;1.97;;;4.50;32.50;;;;;;5011613;28;20655;-70
2024/01/01 03:37:46;;;;;;;3.50;1.63;;;4.60;31.50;;;;;;5011470;28;20215;-70
2024/01/01 03:40:12;;;;;;;2.30;1.27;;;4.80;29.30;;;;;;5011221;28;20207;-70
2024/01/01 03:42:38;;;;;;;2.30;1.20;;;4.80;29.60;;;;;;5011566;28;20172;-70
2024/01/01 03:45:05;;;;;;;2.93;1.00;;;4.80;29.80;;;;;;5011449;28;20411;-70
2024/01/01 03:47:32;;;;;;;3.37;1.10;;;4.90;29.60;;;;;;5012391;28;20219;-71
2024/01/01 03:49:58;;;;;;;2.27;1.10;;;5.00;28.50;;;;;;5015101;28;20535;-70
2024/01/01 03:52:24;;;;;;;4.50;1.23;;;5.10;28.40;;;;;;5014962;28;20521;-71
2024/01/01 03:54:50;;;;;;;2.37;1.10;;;5.20;27.70;;;;;;5015431;28;20418;-71
2024/01/01 03:57:15;;;;;;;2.30;1.07;;;5.40;26.80;;;;;;5014913;28;20476;-70
2024/01/01 03:59:41;;;;;;;10.03;1.90;;;5.50;26.20;;;;;;5014881;28;20659;-69
2024/01/01 04:02:09;;;;;;;3.80;1.33;;;5.50;25.80;;;;;;5014765;28;20176;-70
2024/01/01 04:04:35;;;;;;;4.37;1.20;;;5.60;24.70;;;;;;5014965;28;20181;-71
2024/01/01 04:07:00;;;;;;;2.60;1.03;;;5.70;24.20;;;;;;5014849;28;20607;-71
2024/01/01 04:09:26;;;;;;;2.50;1.07;;;5.80;23.80;;;;;;5014752;28;20211;-70
2024/01/01 04:11:52;;;;;;;4.77;1.13;;;5.80;23.70;;;;;;5014542;28;20298;-71
2024/01/01 04:14:18;;;;;;;6.60;1.43;;;5.80;22.80;;;;;;5014767;28;20506;-71
2024/01/01 04:16:43;;;;;;;4.97;1.20;;;5.80;23.00;;;;;;5013309;28;20213;-70
2024/01/01 04:19:09;;;;;;;2.43;1.00;;;5.90;22.50;;;;;;5014547;28;20578;-70
2024/01/01 04:21:39;;;;;;;1.70;0.90;;;6.10;20.80;;;;;;5014374;28;20175;-71
2024/01/01 04:24:09;;;;;;;3.07;1.50;;;6.10;20.90;;;;;;5014781;28;20222;-70
2024/01/01 04:26:37;;;;;;;2.33;0.73;;;6.00;20.80;;;;;;5014467;28;20430;-70
2024/01/01 04:29:02;;;;;;;3.20;1.17;;;5.90;21.10;;;;;;5014439;28;20454;-70
2024/01/01 04:31:28;;;;;;;1.90;0.90;;;5.80;21.30;;;;;;5014074;28;20430;-70
2024/01/01 04:33:53;;;;;;;5.00;1.60;;;5.70;21.60;;;;;;5014376;28;20180;-70
2024/01/01 04:36:19;;;;;;;2.13;1.33;;;5.60;22.70;;;;;;5012946;28;20603;-70
2024/01/01 04:38:44;;;;;;;2.30;0.90;;;5.60;22.70;;;;;;5014438;28;20182;-70
2024/01/01 04:41:10;;;;;;;6.03;1.70;;;5.60;22.60;;;;;;5013965;28;20203;-70
2024/01/01 04:43:36;;;;;;;2.20;1.13;;;5.60;22.80;;;;;;5014205;28;20268;-71
2024/01/01 04:46:02;;;;;;;5.47;1.70;;;5.60;22.60;;;;;;5012735;28;20274;-71
2024/01/01 04:48:27;;;;;;;2.23;1.20;;;5.70;22.40;;;;;;5014158;28;20570;-71
2024/01/01 04:50:53;;;;;;;2.33;1.00;;;5.70;22.10;;;;;;5013835;28;20200;-70
2024/01/01 04:53:18;;;;;;;2.97;1.13;;;5.70;22.20;;;;;;5012608;28;20247;-70
2024/01/01 04:55:44;;;;;;;2.20;0.97;;;5.70;22.40;;;;;;5014249;28;20270;-69
2024/01/01 04:58:09;;;;;;;6.40;1.37;;;5.60;22.00;;;;;;5013328;28;20677;-70
2024/01/01 05:00:35;;;;;;;2.70;1.17;;;5.60;21.80;;;;;;5012138;28;20196;-70
2024/01/01 05:03:00;;;;;;;1.60;0.60;;;5.60;21.60;;;;;;5013869;28;20230;-70
2024/01/01 05:05:26;;;;;;;2.43;1.00;;;5.50;21.90;;;;;;5014061;28;20191;-69
2024/01/01 05:07:53;;;;;;;5.87;1.80;;;5.50;21.80;;;;;;5012468;28;20549;-68
2024/01/01 05:10:18;;;;;;;3.90;1.00;;;5.50;22.30;;;;;;5013244;28;20326;-70
2024/01/01 05:12:44;;;;;;;2.63;0.87;;;5.40;21.90;;;;;;5013577;28;20517;-70
2024/01/01 05:15:12;;;;;;;6.33;1.33;;;5.40;22.10;;;;;;5013486;28;20382;-70
2024/01/01 05:17:38;;;;;;;2.50;1.57;;;5.30;21.80;;;;;;5013359;28;20290;-70
2024/01/01 05:20:04;;;;;;;3.87;1.33;;;5.30;21.90;;;;;;5013144;28;20514;-68
2024/01/01 05:22:30;;;;;;;3.73;1.53;;;5.20;22.00;;;;;;5013287;28;20251;-70
2024/01/01 05:24:56;;;;;;;1.90;0.90;;;5.30;21.60;;;;;;5013366;28;21033;-69
2024/01/01 05:27:21;;;;;;;2.20;1.10;;;5.20;21.50;;;;;;5013151;28;20432;-70
2024/01/01 05:29:47;;;;;;;6.53;1.13;;;5.20;21.40;;;;;;5013038;28;20629;-70
2024/01/01 05:32:13;;;;;;;2.40;1.07;;;5.10;21.20;;;;;;5012946;28;20681;-69
2024/01/01 05:34:41;;;;;;;1.93;1.00;;;5.10;21.80;;;;;;5013124;28;20214;-70
2024/01/01 05:37:06;;;;;;;3.20;1.60;;;5.00;21.50;;;;;;5012960;28;20204;-70
2024/01/01 05:39:32;;;;;;;5.40;1.47;;;5.10;21.50;;;;;;5012988;28;20473;-69
2024/01/01 05:41:57;;;;;;;4.70;1.43;;;5.20;20.30;;;;;;5012896;28;20176;-69
2024/01/01 05:44:23;;;;;;;2.10;0.73;;;5.30;20.30;;;;;;5013051;28;20168;-70
2024/01/01 05:46:49;;;;;;;7.37;1.80;;;5.40;20.20;;;;;;5013014;28;20193;-69
2024/01/01 05:49:15;;;;;;;4.33;1.10;;;5.50;19.30;;;;;;5012872;28;20552;-69
2024/01/01 05:51:41;;;;;;;4.27;1.40;;;5.60;18.50;;;;;;5012664;28;20423;-68
2024/01/01 05:54:06;;;;;;;2.83;1.20;;;5.70;17.70;;;;;;5012947;28;20899;-70
2024/01/01 05:56:32;;;;;;;6.60;1.67;;;5.80;16.40;;;;;;5012705;28;20211;-69
2024/01/01 05:58:57;;;;;;;11.83;2.47;;;5.90;16.40;;;;;;5012701;28;20537;-69
2024/01/01 06:01:23;;;;;;;4.70;1.97;;;5.90;16.10;;;;;;5012334;28;20214;-69
2024/01/01 06:03:48;;;;;;;5.20;1.87;;;5.90;16.50;;;;;;5012806;28;20608;-70
2024/01/01 06:06:15;;;;;;;4.87;1.80;;;5.80;16.70;;;;;;5011213;28;20607;-70
2024/01/01 06:08:41;;;;;;;7.53;1.60;;;5.80;16.40;;;;;;5012524;28;20694;-70
2024/01/01 06:11:06;;;;;;;4.33;1.40;;;5.80;16.80;;;;;;5011327;28;20459;-70
2024/01/01 06:13:32;;;;;;;11.23;2.53;;;5.80;16.40;;;;;;5012390;28;20673;-69
2024/01/01 06:15:58;;;;;;;13.30;2.23;;;5.80;16.70;;;;;;5012498;28;20253;-69
2024/01/01 06:18:25;;;;;;;3.50;1.67;;;5.80;16.70;;;;;;5012341;28;20215;-70
2024/01/01 06:20:50;;;;;;;4.20;1.63;;;5.70;16.60;;;;;;5012029;28;20431;-70
2024/01/01 06:23:16;;;;;;;4.70;1.53;;;5.80;16.30;;;;;;5011134;28;20505;-70
2024/01/01 06:25:41;;;;;;;5.33;1.90;;;5.70;16.00;;;;;;5012188;28;20721;-70
2024/01/01 06:28:07;;;;;;;4.90;1.97;;;5.60;16.20;;;;;;5011208;28;20667;-70
2024/01/01 06:30:34;;;;;;;9.90;2.23;;;5.60;16.30;;;;;;5011989;28;20191;-70
2024/01/01 06:33:01;;;;;;;3.67;1.90;;;5.50;16.60;;;;;;5010920;28;20254;-69
2024/01/01 06:35:30;;;;;;;3.03;1.67;;;5.40;16.90;;;;;;5012098;28;20411;-70
2024/01/01 06:37:58;;;;;;;5.43;1.77;;;5.50;16.80;;;;;;5010770;28;20827;-70
2024/01/01 06:40:24;;;;;;;3.03;1.63;;;5.40;16.80;;;;;;5010416;28;20445;-68
2024/01/01 06:42:49;;;;;;;5.93;1.90;;;5.40;17.30;;;;;;5010592;28;20427;-70
2024/01/01 06:45:15;;;;;;;3.47;1.40;;;5.30;16.80;;;;;;5012109;28;20446;-70
2024/01/01 06:47:41;;;;;;;3.70;1.10;;;5.30;17.10;;;;;;5012145;28;20182;-70
2024/01/01 06:50:06;;;;;;;3.80;2.20;;;5.40;16.80;;;;;;5011732;28;20192;-70
2024/01/01 06:52:32;;;;;;;3.80;1.30;;;5.50;16.60;;;;;;5011937;28;20199;-69
2024/01/01 06:55:00;;;;;;;5.73;1.30;;;5.50;15.90;;;;;;5012077;28;20667;-70
2024/01/01 06:57:26;;;;;;;3.90;1.77;;;5.50;16.10;;;;;;5011882;28;20204;-69
2024/01/01 06:59:51;;;;;;;14.90;2.20;;;5.40;15.60;;;;;;5010577;28;20435;-70
2024/01/01 07:02:17;;;;;;;5.73;1.20;;;5.50;15.50;;;;;;5011757;28;20179;-70
2024/01/01 07:04:43;;;;;;;5.87;2.40;;;5.40;16.00;;;;;;5011785;28;20244;-70
2024/01/01 07:07:10;;;;;;;3.30;1.10;;;5.50;15.20;;;;;;5011834;28;20191;-70
2024/01/01 07:09:35;;;;;;;3.30;1.50;;;5.60;15.10;;;;;;5116662;23;20243;-68
2024/01/01 07:12:20;;;;;;;3.50;1.53;;;5.70;14.80;;;;;;5011282;28;20419;-69
2024/01/01 07:14:47;;;;;;;6.87;1.57;;;5.80;14.30;;;;;;5012178;28;20172;-69
2024/01/01 07:17:12;;;;;;;3.00;1.03;;;5.90;14.40;;;;;;5011740;28;20459;-69
2024/01/01 07:19:38;;;;;;;7.27;1.63;;;5.90;14.00;;;;;;5011638;28;20890;-69
2024/01/01 07:22:04;;;;;;;3.93;1.73;;;6.00;13.80;;;;;;5012285;28;20548;-69
2024/01/01 07:24:30;;;;;;;5.67;1.67;;;6.00;13.50;;;;;;5016238;28;20480;-69
2024/01/01 07:26:56;;;;;;;5.67;1.23;;;6.10;13.50;;;;;;5014945;28;20423;-69
2024/01/01 07:29:21;;;;;;;3.63;1.27;;;6.10;13.80;;;;;;5016192;28;20177;-69
2024/01/01 07:31:47;;;;;;;3.63;1.90;;;6.10;14.20;;;;;;5016165;28;20203;-70
2024/01/01 07:34:15;;;;;;;2.40;1.00;;;6.10;13.40;;;;;;5016249;28;20204;-69
2024/01/01 07:36:42;;;;;;;6.60;2.30;;;6.10;13.90;;;;;;5015866;28;20203;-70
2024/01/01 07:39:07;;;;;;;6.67;1.73;;;6.00;13.90;;;;;;5016491;28;20408;-70
2024/01/01 07:41:33;;;;;;;6.77;1.90;;;6.00;14.20;;;;;;5016522;28;20445;-70
2024/01/01 07:43:58;;;;;;;4.00;1.77;;;6.00;14.40;;;;;;5014837;28;20177;-70
2024/01/01 07:46:24;;;;;;;3.87;2.17;;;6.00;14.80;;;;;;5015410;28;20187;-69
2024/01/01 07:48:50;;;;;;;8.10;2.10;;;5.90;14.80;;;;;;5015228;28;20238;-69
2024/01/01 07:51:15;;;;;;;5.77;1.40;;;5.90;15.50;;;;;;5015075;28;20199;-70
2024/01/01 07:53:42;;;;;;;4.33;1.33;;;5.90;14.90;;;;;;5014116;28;20659;-70
2024/01/01 07:56:08;;;;;;;4.13;2.20;;;6.00;15.30;;;;;;5013973;28;20208;-69
2024/01/01 07:58:33;;;;;;;7.80;2.37;;;6.10;14.70;;;;;;5015035;28;20414;-69
2024/01/01 08:00:59;;;;;;;3.17;1.60;;;6.20;14.70;;;;;;5015043;28;20431;-69
2024/01/01 08:03:25;;;;;;;10.87;1.90;;;6.20;14.60;;;;;;5015156;28;20255;-69
2024/01/01 08:05:51;;;;;;;2.43;1.40;;;6.20;14.70;;;;;;5014983;28;20172;-70
2024/01/01 08:08:20;;;;;;;8.63;1.80;;;6.10;15.10;;;;;;5013686;28;20419;-69
2024/01/01 08:10:46;;;;;;;2.60;1.07;;;6.10;15.40;;;;;;5012996;28;20219;-69
2024/01/01 08:13:11;;;;;;;5.70;1.60;;;6.00;15.70;;;;;;5015047;28;20928;-70
2024/01/01 08:15:37;;;;;;;4.40;2.20;;;6.00;16.40;;;;;;5015112;28;20168;-70
2024/01/01 08:18:03;;;;;;;5.97;2.17;;;5.90;16.90;;;;;;5014808;28;20867;-70
2024/01/01 08:20:29;;;;;;;6.07;2.40;;;5.90;17.10;;;;;;5014657;28;20541;-70
2024/01/01 08:22:58;;;;;;;9.53;2.40;;;5.90;17.30;;;;;;5014694;28;20181;-69
2024/01/01 08:25:23;;;;;;;4.03;1.37;;;6.00;17.30;;;;;;5014849;28;20998;-70
2024/01/01 08:27:49;;;;;;;2.80;1.53;;;6.00;17.60;;;;;;5014682;28;20455;-70
2024/01/01 08:30:15;;;;;;;6.77;1.10;;;6.10;17.50;;;;;;5014463;28;20200;-70
2024/01/01 08:32:40;;;;;;;7.40;2.80;;;6.10;18.10;;;;;;5012721;28;20180;-68
2024/01/01 08:35:06;;;;;;;8.03;3.87;;;6.00;18.10;;;;;;5014366;28;20498;-70
2024/01/01 08:37:32;;;;;;;3.47;1.50;;;6.00;18.90;;;;;;5014433;28;20208;-70
2024/01/01 08:39:58;;;;;;;4.83;1.70;;;6.00;19.90;;;;;;5013100;28;20442;-70
2024/01/01 08:42:24;;;;;;;3.03;1.23;;;5.90;20.20;;;;;;5013138;28;20183;-69
2024/01/01 08:44:52;;;;;;;2.47;1.23;;;5.90;20.70;;;;;;5014525;28;20170;-70
2024/01/01 08:47:18;;;;;;;2.67;1.20;;;5.90;20.80;;;;;;5013270;28;20506;-69
2024/01/01 08:49:43;;;;;;;2.87;1.60;;;5.90;20.70;;;;;;5014140;28;20506;-71
2024/01/01 08:52:09;;;;;;;3.03;1.30;;;6.00;20.80;;;;;;5014146;28;20207;-69
2024/01/01 08:54:35;;;;;;;3.30;1.10;;;6.00;20.80;;;;;;5013125;28;20710;-70
2024/01/01 08:57:00;;;;;;;3.30;1.20;;;6.00;20.80;;;;;;5013729;28;20283;-70
2024/01/01 08:59:26;;;;;;;5.27;1.20;;;6.00;20.80;;;;;;5012644;28;20231;-70
2024/01/01 09:01:51;;;;;;;2.47;1.63;;;6.10;20.80;;;;;;5013685;28;20223;-69
2024/01/01 09:04:20;;;;;;;3.97;1.50;;;6.20;20.70;;;;;;5013756;28;20173;-69
2024/01/01 09:06:46;;;;;;;6.60;1.37;;;6.30;19.50;;;;;;5013665;28;20184;-69
2024/01/01 09:09:11;;;;;;;6.20;1.50;;;6.30;19.10;;;;;;5013732;28;20477;-68
2024/01/01 09:11:37;;;;;;;4.70;1.50;;;6.30;19.10;;;;;;5013372;28;20745;-69
2024/01/01 09:14:02;;;;;;;2.90;1.27;;;6.30;18.60;;;;;;5013619;28;20654;-71
2024/01/01 09:16:29;;;;;;;3.77;1.30;;;6.40;19.00;;;;;;5013545;28;20233;-69
2024/01/01 09:19:01;;;;;;;3.53;1.10;;;6.40;18.40;;;;;;5013495;28;20200;-69
2024/01/01 09:21:27;;;;;;;5.87;1.77;;;6.60;17.30;;;;;;5013378;28;20446;-69
2024/01/01 09:24:00;;;;;;;3.30;1.00;;;6.70;16.90;;;;;;5013647;28;20776;-69
2024/01/01 09:26:26;;;;;;;4.83;1.17;;;6.80;16.60;;;;;;5013699;28;20495;-69
2024/01/01 09:28:52;;;;;;;6.70;1.10;;;7.00;16.40;;;;;;5012118;28;20443;-69
2024/01/01 09:31:17;;;;;;;2.90;1.73;;;7.10;15.00;;;;;;5013160;28;20840;-69
2024/01/01 09:33:43;;;;;;;1.70;0.80;;;7.30;14.60;;;;;;5013288;28;20192;-69
2024/01/01 09:36:12;;;;;;;2.17;0.97;;;7.20;13.80;;;;;;5013203;28;20190;-70
2024/01/01 09:38:37;;;;;;;3.17;1.13;;;7.20;14.30;;;;;;5013224;28;20545;-69
2024/01/01 09:41:03;;;;;;;2.00;0.80;;;7.20;13.30;;;;;;5013089;28;20424;-69
2024/01/01 09:43:28;;;;;;;5.83;1.40;;;7.30;13.50;;;;;;5013257;28;20175;-69
2024/01/01 09:45:55;;;;;;;4.37;1.33;;;7.20;13.20;;;;;;5013248;28;20261;-69
2024/01/01 09:48:21;;;;;;;5.83;1.20;;;7.10;14.10;;;;;;5011951;28;20183;-69
2024/01/01 09:50:50;;;;;;;3.27;1.33;;;7.00;14.80;;;;;;5012695;28;20443;-68
2024/01/01 09:53:19;;;;;;;1.87;0.90;;;6.80;16.00;;;;;;5011720;28;20173;-69
2024/01/01 09:55:55;;;;;;;3.77;1.50;;;6.80;16.80;;;;;;5012966;28;20403;-69
2024/01/01 09:58:21;;;;;;;4.00;1.63;;;6.80;16.80;;;;;;5012928;28;20412;-69
2024/01/01 10:00:48;;;;;;;3.53;1.67;;;6.80;16.30;;;;;;5012583;28;20424;-69
2024/01/01 10:03:14;;;;;;;4.30;1.77;;;6.90;16.40;;;;;;5012859;28;20440;-69
2024/01/01 10:05:40;;;;;;;4.40;1.60;;;6.90;15.50;;;;;;5012700;28;20424;-69
2024/01/01 10:08:11;;;;;;;5.10;1.70;;;6.90;15.10;;;;;;5012832;28;20251;-68
2024/01/01 10:10:38;;;;;;;3.07;1.17;;;7.00;15.00;;;;;;5010965;28;20463;-69
2024/01/01 10:13:11;;;;;;;4.90;1.20;;;7.00;15.60;;;;;;5012691;28;20432;-69
2024/01/01 10:15:41;;;;;;;3.07;1.73;;;7.00;15.10;;;;;;5012571;28;20510;-69
2024/01/01 10:18:14;;;;;;;4.07;1.50;;;7.10;14.40;;;;;;5012406;28;20507;-69
2024/01/01 10:20:43;;;;;;;5.60;1.30;;;7.20;14.50;;;;;;5012255;28;20522;-69
2024/01/01 10:23:20;;;;;;;2.67;1.30;;;7.20;13.60;;;;;;5012420;28;20411;-69
2024/01/01 10:25:47;;;;;;;3.27;1.43;;;7.20;13.80;;;;;;5012336;28;20426;-69
2024/01/01 10:28:16;;;;;;;3.90;1.57;;;7.20;13.60;;;;;;5012280;28;20420;-69
2024/01/01 10:30:47;;;;;;;3.67;1.43;;;7.30;13.10;;;;;;5011938;28;20944;-70
2024/01/01 10:33:14;;;;;;;4.23;1.50;;;7.30;13.10;;;;;;5012234;28;20423;-70
2024/01/01 10:35:40;;;;;;;1.90;1.10;;;7.30;13.10;;;;;;5012215;28;20421;-69
2024/01/01 10:38:06;;;;;;;4.80;1.83;;;7.40;13.10;;;;;;5011838;28;20456;-69
2024/01/01 10:40:32;;;;;;;8.00;1.77;;;7.40;12.70;;;;;;5010370;28;20782;-69
2024/01/01 10:42:58;;;;;;;4.07;1.93;;;7.50;12.60;;;;;;5010606;28;20460;-69
2024/01/01 10:45:23;;;;;;;4.13;2.10;;;7.50;12.10;;;;;;5011949;28;20202;-69
2024/01/01 10:47:52;;;;;;;3.23;1.30;;;7.60;12.50;;;;;;5011798;28;20454;-69
2024/01/01 10:50:28;;;;;;;2.20;1.07;;;7.60;12.60;;;;;;5011652;28;20418;-68
2024/01/01 10:53:12;;;;;;;9.73;1.67;;;7.80;12.30;;;;;;5012084;28;20485;-70
2024/01/01 10:55:47;;;;;;;7.53;1.43;;;7.90;11.30;;;;;;5011639;28;20412;-69
2024/01/01 10:58:33;;;;;;;2.43;1.57;;;7.90;10.40;;;;;;5011921;28;21002;-69
2024/01/01 11:01:08;;;;;;;3.00;1.60;;;8.00;10.40;;;;;;5011706;28;20458;-71
2024/01/01 11:03:35;;;;;;;3.60;1.50;;;8.00;9.80;;;;;;5011839;28;20401;-70
2024/01/01 11:06:26;;;;;;;12.57;1.50;;;8.10;9.00;;;;;;5012193;28;20952;-70
2024/01/01 11:08:56;;;;;;;6.60;1.67;;;8.10;9.20;;;;;;5012220;28;20962;-70
2024/01/01 11:11:31;;;;;;;3.63;2.07;;;8.20;9.20;;;;;;5011685;28;20456;-70
2024/01/01 11:13:58;;;;;;;3.83;2.43;;;8.30;9.20;;;;;;5012143;28;20410;-70
2024/01/01 11:16:24;;;;;;;5.40;1.57;;;8.30;8.40;;;;;;5011724;28;20457;-69
2024/01/01 11:18:51;;;;;;;3.00;1.00;;;8.40;8.30;;;;;;5010611;28;20428;-69
2024/01/01 11:21:30;;;;;;;5.83;1.70;;;8.40;8.40;;;;;;5011997;28;20434;-72
2024/01/01 11:23:59;;;;;;;6.47;2.10;;;8.40;7.90;;;;;;5012253;28;20409;-71
2024/01/01 11:26:35;;;;;;;4.60;2.17;;;8.40;8.20;;;;;;5012203;28;20414;-71
2024/01/01 11:29:06;;;;;;;4.40;1.90;;;8.50;7.80;;;;;;5011854;28;20428;-71
2024/01/01 11:31:34;;;;;;;2.80;1.33;;;8.60;7.60;;;;;;5011365;28;20438;-70
2024/01/01 11:34:06;;;;;;;6.33;2.80;;;8.70;7.50;;;;;;5011746;28;20772;-71
2024/01/01 11:36:33;;;;;;;2.80;1.40;;;8.70;7.40;;;;;;5011757;28;20814;-70
2024/01/01 11:38:59;;;;;;;3.33;1.60;;;8.60;7.20;;;;;;5012174;28;20495;-71
2024/01/01 11:41:30;;;;;;;3.57;2.07;;;8.50;7.40;;;;;;5010438;28;20434;-71
2024/01/01 11:44:08;;;;;;;3.30;1.63;;;8.50;7.80;;;;;;5011775;28;20472;-71
2024/01/01 11:46:34;;;;;;;2.70;1.50;;;8.40;7.90;;;;;;5011844;28;20414;-69
2024/01/01 11:49:01;;;;;;;5.50;1.80;;;8.40;8.30;;;;;;5012266;28;20936;-70
2024/01/01 11:51:34;;;;;;;6.90;1.87;;;8.50;8.10;;;;;;5011667;28;20217;-70
2024/01/01 11:54:10;;;;;;;16.23;2.37;;;8.70;7.30;;;;;;5010397;28;20434;-70
2024/01/01 11:56:37;;;;;;;6.43;1.90;;;8.80;7.20;;;;;;5011726;28;20453;-69
2024/01/01 11:59:04;;;;;;;3.53;1.80;;;8.80;7.60;;;;;;5011849;28;20417;-70
2024/01/01 12:01:31;;;;;;;2.30;1.37;;;8.70;6.60;;;;;;5011367;28;20951;-71
2024/01/01 12:03:59;;;;;;;2.80;1.87;;;8.70;7.10;;;;;;5011769;28;20875;-72
2024/01/01 12:06:25;;;;;;;5.43;1.40;;;8.60;6.50;;;;;;5010492;28;20423;-71
2024/01/01 12:09:02;;;;;;;4.00;2.13;;;8.80;7.50;;;;;;5013295;28;20422;-71
2024/01/01 12:11:27;;;;;;;3.70;2.23;;;8.90;6.50;;;;;;5014940;28;20582;-70
2024/01/01 12:13:55;;;;;;;2.90;1.30;;;9.00;5.60;;;;;;5014973;28;20426;-72
2024/01/01 12:16:21;;;;;;;7.73;1.87;;;8.90;5.30;;;;;;5014777;28;20617;-71
2024/01/01 12:18:46;;;;;;;3.70;1.80;;;8.70;5.20;;;;;;5013753;28;20453;-71
2024/01/01 12:21:12;;;;;;;2.97;1.80;;;8.70;5.20;;;;;;5014763;28;20235;-69
2024/01/01 12:23:38;;;;;;;2.80;1.63;;;8.80;5.70;;;;;;5014886;28;20229;-71
2024/01/01 12:26:04;;;;;;;4.70;2.00;;;8.80;5.20;;;;;;5015029;28;20260;-72
2024/01/01 12:28:30;;;;;;;5.03;1.93;;;8.90;5.60;;;;;;5014684;28;20191;-70
2024/01/01 12:30:59;;;;;;;3.60;2.10;;;8.90;5.80;;;;;;5013422;28;20445;-70
2024/01/01 12:33:25;;;;;;;7.80;2.13;;;8.90;5.30;;;;;;5013667;28;20659;-71
2024/01/01 12:35:50;;;;;;;2.97;1.70;;;8.80;5.20;;;;;;5014840;28;20421;-69
2024/01/01 12:38:16;;;;;;;5.10;1.70;;;9.00;5.30;;;;;;5014619;28;20211;-69
2024/01/01 12:40:42;;;;;;;4.37;2.47;;;9.10;5.40;;;;;;5014259;28;20618;-69
2024/01/01 12:43:07;;;;;;;3.40;1.93;;;9.00;5.30;;;;;;5014534;28;20172;-69
2024/01/01 12:45:35;;;;;;;5.23;1.40;;;8.80;5.20;;;;;;5014576;28;20645;-70
2024/01/01 12:48:01;;;;;;;3.07;1.67;;;8.90;5.30;;;;;;5014407;28;20265;-70
2024/01/01 12:50:26;;;;;;;3.87;1.57;;;8.90;5.20;;;;;;5014364;28;20474;-69
2024/01/01 12:52:52;;;;;;;4.83;1.50;;;9.00;5.30;;;;;;5013110;28;20600;-70
2024/01/01 12:55:18;;;;;;;4.87;2.77;;;8.90;4.80;;;;;;5014497;28;20577;-70
2024/01/01 12:57:44;;;;;;;3.30;1.37;;;8.80;4.00;;;;;;5013907;28;20565;-70